Historique des mesures à Cassis (13260), France
Quotidien Résumé Septembre 8, 2017 Unités:  Métrique    US   Métrique/US
« Précédent (Jour)
Suivant (Jour) »
Quotidien Hebdomadaire Mensuel Annuel Période au choix
  Maximum: Minimum: Moyenne:
Température: TemperatureC °C 16.6 °C 19.8 °C
Point de rosée: DewpointC °C 7.8 °C 9.9 °C
Humidité: Humidity % 43 % 50 %
Vitesse du vent: 0 km/h 0 km/h 7.6 km/h
Rafales: 0 km/h - -
Vent:- - SSE
Pression: PressurehPa hPa 1007.0 hPa -
Précipitations: 0.0 mm    
Historical Graphs
 
 
Mesures pour : Septembre 8, 2017
Heure Temperature Point de rosée Pression Vent Vitesse du vent Rafales Humidité Pluie (par heure) Conditions
TemperatureC °C DewpointC °C PressurehPa hPa Calm     Humidity % HourlyPrecipMM mm SoftwareType W/m2
00:11 19.6 °C 8.3 °C 1008.0 hPa NW 17.9 km/h 33.2 km/h 48 % 0.0 mm open2300-1.11 W/m2
01:11 19.2 °C 8.2 °C 1008.4 hPa North 17.9 km/h 19.2 km/h 49 % 0.0 mm open2300-1.11 W/m2
02:11 18.9 °C 8.3 °C 1008.4 hPa NW 14.5 km/h 19.2 km/h 50 % 0.0 mm open2300-1.11 W/m2
03:11 18.4 °C 8.3 °C 1008.0 hPa NW 19.6 km/h 19.6 km/h 52 % 0.0 mm open2300-1.11 W/m2
04:11 18.3 °C 8.2 °C 1008.7 hPa NW 17.4 km/h 17.4 km/h 52 % 0.0 mm open2300-1.11 W/m2
05:11 17.6 °C 7.8 °C 1008.4 hPa NNW 11.6 km/h 12.2 km/h 53 % 0.0 mm open2300-1.11 W/m2
06:11 17.2 °C 8.1 °C 1008.4 hPa Calm   5.6 km/h 55 % 0.0 mm open2300-1.11 W/m2
07:11 16.6 °C 8.1 °C 1008.4 hPa WSW 9.3 km/h 12.7 km/h 57 % 0.0 mm open2300-1.11 W/m2
08:11 16.8 °C 8.2 °C 1009.4 hPa North 7.6 km/h 8 km/h 57 % 0.0 mm open2300-1.11 W/m2
09:11 18.8 °C 9.0 °C 1009.4 hPa North 9.8 km/h 9.8 km/h 53 % 0.0 mm open2300-1.11 W/m2
10:11 19.9 °C 9.5 °C 1009.4 hPa North 5.1 km/h 7.6 km/h 51 % 0.0 mm open2300-1.11 W/m2
11:11 22.9 °C 10.9 °C 1009.4 hPa ENE 6.4 km/h 6.4 km/h 47 % 0.0 mm open2300-1.11 W/m2
12:11 24.8 °C 12.0 °C 1009.0 hPa SE 1.8 km/h 12.7 km/h 45 % 0.0 mm open2300-1.11 W/m2
13:11 25.6 °C 12.4 °C 1009.0 hPa SSE 11.6 km/h 11.6 km/h 44 % 0.0 mm open2300-1.11 W/m2
14:11 25.6 °C 13.1 °C 1008.7 hPa SSE 5.6 km/h 8.9 km/h 46 % 0.0 mm open2300-1.11 W/m2
15:11 25.8 °C 12.2 °C 1008.4 hPa SSE 5.6 km/h 5.6 km/h 43 % 0.0 mm open2300-1.11 W/m2
16:11 24.4 °C 12.3 °C 1007.7 hPa ESE 5.6 km/h 10.3 km/h 47 % 0.0 mm open2300-1.11 W/m2
17:11 23.9 °C 12.6 °C 1007.3 hPa SSE 7.6 km/h 12.2 km/h 49 % 0.0 mm open2300-1.11 W/m2
18:11 22.9 °C 12.8 °C 1007.0 hPa SSE 4.7 km/h 6.9 km/h 53 % 0.0 mm open2300-1.11 W/m2
19:11 21.6 °C 12.7 °C 1007.0 hPa South 6.4 km/h 6.4 km/h 57 % 0.0 mm open2300-1.11 W/m2
20:11 20.5 °C 12.7 °C 1007.0 hPa Calm     61 % 0.0 mm open2300-1.11 W/m2
21:11 19.4 °C 11.2 °C 1007.3 hPa NNE 2.3 km/h 2.3 km/h 59 % 0.0 mm open2300-1.11 W/m2
22:11 18.5 °C 10.1 °C 1007.3 hPa Calm   3.4 km/h 58 % 0.0 mm open2300-1.11 W/m2
23:11 18.3 °C 9.6 °C 1007.0 hPa Calm     57 % 0.0 mm open2300-1.11 W/m2
Observations météo à CASSIS
WU-History script by Weather Underground - 1 mb